Avon Lake, Ohio
Current Conditions -  °F | °C
As of 11:51 PM on Tuesday 21 Oct 2014 (Local Time) from KCLE Reporting Station
Overcast Overcast  
Wind Chill: 42°   Ceiling: 1700
Heat Index: 48°   Visibility: 10mi
Dew Point: 43°   Wind: 14mph
Humidity: 83%   Direction: 10°N
Pressure: 30.15"   Gusts: NA
Location:  41.51°N, 82.02°W
Report Text: KCLE 220351Z 01012KT 10SM OVC017 09/06 A3015 RMK AO2 RAE0254 SLP211 P0000 T00890061 $
Loading
Personal Weather Stations






























Interactive Weather Map
Tropical Storm Tracking
New forecast layout! Learn more

10-Day Weather Forecast

Advertisements
Track Severe Weather on mobile